PST,Max TemperatureF,Mean TemperatureF,Min TemperatureF,Max Dew PointF,MeanDew PointF,Min DewpointF,Max Humidity, Mean Humidity, Min Humidity, Max Sea Level PressureIn, Mean Sea Level PressureIn, Min Sea Level PressureIn, Max VisibilityMiles, Mean VisibilityMiles, Min VisibilityMiles, Max Wind SpeedMPH, Mean Wind SpeedMPH, Max Gust SpeedMPH,PrecipitationIn, CloudCover, Events, WindDirDegrees
2013-1-1,59,45,31,36,31,26,100,65,30,30.27,30.22,30.17,10,9,5,10,3,12,0.00,1,Fog,322
2013-1-2,56,41,26,35,30,24,100,73,46,30.23,30.18,30.12,10,8,1,7,2,8,0.00,0,Fog,329
2013-1-3,55,41,26,38,30,24,100,71,41,30.26,30.19,30.16,10,5,0,6,1,8,0.00,1,Fog,312
2013-1-4,58,44,29,38,34,29,100,74,47,30.28,30.23,30.16,10,6,1,8,2,8,0.00,1,Fog,252
2013-1-5,47,39,30,45,37,28,100,88,76,30.24,30.17,30.05,9,3,0,9,2,10,0.44,5,Fog-Rain,342
2013-1-6,48,42,36,43,38,35,100,93,80,30.19,30.15,30.05,10,4,0,8,2,,0.00,2,Fog,302
2013-1-7,60,47,33,47,38,32,100,80,60,30.24,30.18,30.14,10,3,0,7,2,8,0.00,4,Fog,256
2013-1-8,61,49,36,47,41,36,100,80,60,30.23,30.17,30.11,10,3,0,8,2,10,0.00,2,Fog,176
2013-1-9,51,43,35,48,40,31,100,81,61,30.15,30.07,29.97,10,3,0,17,3,24,0.02,4,Fog-Rain,291
2013-1-10,51,40,29,34,30,28,96,69,41,30.19,30.11,30.06,10,10,8,18,6,24,0.00,1,,321
2013-1-11,54,43,31,35,31,28,82,66,50,30.24,30.17,30.10,10,10,9,14,4,18,0.00,2,,332
2013-1-12,51,40,28,34,29,24,92,66,39,30.24,30.18,30.12,10,10,7,9,2,10,0.00,1,,338
2013-1-13,52,38,23,33,25,11,92,63,33,30.26,30.21,30.16,10,8,0,24,2,31,0.00,2,Fog,318
2013-1-14,56,41,26,32,25,10,89,57,25,30.38,30.32,30.22,10,10,8,22,3,26,0.00,0,,293
2013-1-15,54,40,26,33,29,25,92,65,38,30.47,30.42,30.39,10,8,2,8,2,9,0.00,1,Fog,181
2013-1-16,59,43,26,37,30,25,100,72,43,30.44,30.37,30.26,10,5,0,6,1,8,0.00,0,Fog,237
2013-1-17,61,44,27,38,31,25,100,68,36,30.28,30.22,30.14,10,3,0,6,1,7,0.00,1,,275
2013-1-18,62,44,26,40,31,24,100,68,36,30.22,30.17,30.12,10,5,0,5,1,7,0.00,2,Fog,319
2013-1-19,65,46,27,41,32,24,100,70,39,30.25,30.19,30.14,10,6,0,7,1,9,0.00,1,Fog,332
2013-1-20,63,45,27,38,31,25,96,66,36,30.24,30.19,30.11,10,6,0,8,1,9,0.00,0,Fog,263
2013-1-21,63,45,26,40,32,24,96,66,36,30.17,30.12,30.07,10,8,2,7,2,9,0.00,0,Fog,304
2013-1-22,61,45,29,41,34,28,100,71,42,30.11,30.06,29.97,10,7,0,9,2,10,0.00,2,Fog,342
2013-1-23,51,47,43,48,45,39,100,89,77,30.07,30.02,29.94,10,5,1,13,3,16,0.40,8,Rain,348
2013-1-24,59,54,48,52,48,46,100,88,75,30.18,30.11,30.05,9,3,0,9,2,10,0.06,8,Fog-Rain,168
2013-1-25,62,53,44,53,49,44,100,84,67,30.18,30.12,30.03,10,3,0,6,1,7,T,6,Fog,321
2013-1-26,59,49,39,47,41,33,100,70,40,30.06,30.01,29.95,10,4,0,20,5,25,0.01,4,Fog,307
2013-1-27,57,46,34,35,33,30,85,62,38,30.17,30.11,30.05,10,10,10,17,6,23,0.00,1,,315
2013-1-28,58,47,35,38,36,32,89,68,47,30.27,30.21,30.16,10,10,10,20,9,25,0.00,3,,326
2013-1-29,64,53,41,41,38,35,83,61,39,30.35,30.29,30.25,10,10,10,18,7,23,0.00,2,,339
2013-1-30,68,52,36,44,40,34,93,69,44,30.32,30.27,30.23,10,10,7,14,4,16,0.00,0,,70
2013-1-31,66,49,32,44,37,30,100,71,42,30.29,30.24,30.16,10,4,0,8,1,9,0.00,1,Fog,280